sensor_id;sensor_type;location;lat;lon;timestamp;P1;durP1;ratioP1;P2;durP2;ratioP2
36359;SDS011;22388;52.432;20.662;2023-05-29T00:00:19;10.98;;;4.40;;
36359;SDS011;22388;52.432;20.662;2023-05-29T00:02:46;12.57;;;4.40;;
36359;SDS011;22388;52.432;20.662;2023-05-29T00:05:11;14.57;;;4.60;;
36359;SDS011;22388;52.432;20.662;2023-05-29T00:07:38;14.57;;;4.32;;
36359;SDS011;22388;52.432;20.662;2023-05-29T00:10:04;10.50;;;4.80;;
36359;SDS011;22388;52.432;20.662;2023-05-29T00:12:29;12.95;;;4.43;;
36359;SDS011;22388;52.432;20.662;2023-05-29T00:14:54;10.55;;;4.63;;
36359;SDS011;22388;52.432;20.662;2023-05-29T00:17:20;12.52;;;4.72;;
36359;SDS011;22388;52.432;20.662;2023-05-29T00:19:46;14.15;;;4.55;;
36359;SDS011;22388;52.432;20.662;2023-05-29T00:22:12;12.48;;;4.50;;
36359;SDS011;22388;52.432;20.662;2023-05-29T00:24:37;12.40;;;4.55;;
36359;SDS011;22388;52.432;20.662;2023-05-29T00:27:03;14.82;;;4.22;;
36359;SDS011;22388;52.432;20.662;2023-05-29T00:29:28;13.93;;;4.65;;
36359;SDS011;22388;52.432;20.662;2023-05-29T00:31:54;14.52;;;5.43;;
36359;SDS011;22388;52.432;20.662;2023-05-29T00:34:19;16.58;;;4.80;;
36359;SDS011;22388;52.432;20.662;2023-05-29T00:36:45;16.80;;;5.80;;
36359;SDS011;22388;52.432;20.662;2023-05-29T00:39:11;16.60;;;5.60;;
36359;SDS011;22388;52.432;20.662;2023-05-29T00:41:37;22.08;;;5.55;;
36359;SDS011;22388;52.432;20.662;2023-05-29T00:44:02;17.00;;;5.97;;
36359;SDS011;22388;52.432;20.662;2023-05-29T00:46:28;13.40;;;5.05;;
36359;SDS011;22388;52.432;20.662;2023-05-29T00:48:54;18.83;;;4.82;;
36359;SDS011;22388;52.432;20.662;2023-05-29T00:51:20;11.75;;;5.00;;
36359;SDS011;22388;52.432;20.662;2023-05-29T00:53:46;14.05;;;4.13;;
36359;SDS011;22388;52.432;20.662;2023-05-29T00:56:12;15.10;;;4.82;;
36359;SDS011;22388;52.432;20.662;2023-05-29T00:58:38;15.60;;;4.82;;
36359;SDS011;22388;52.432;20.662;2023-05-29T01:01:04;12.13;;;4.70;;
36359;SDS011;22388;52.432;20.662;2023-05-29T01:03:31;12.75;;;5.03;;
36359;SDS011;22388;52.432;20.662;2023-05-29T01:06:00;11.73;;;4.53;;
36359;SDS011;22388;52.432;20.662;2023-05-29T01:08:26;14.60;;;5.50;;
36359;SDS011;22388;52.432;20.662;2023-05-29T01:10:51;17.50;;;5.28;;
36359;SDS011;22388;52.432;20.662;2023-05-29T01:13:19;17.08;;;5.05;;
36359;SDS011;22388;52.432;20.662;2023-05-29T01:15:52;11.80;;;4.30;;
36359;SDS011;22388;52.432;20.662;2023-05-29T01:18:27;10.93;;;4.82;;
36359;SDS011;22388;52.432;20.662;2023-05-29T01:28:48;11.57;;;4.50;;
36359;SDS011;22388;52.432;20.662;2023-05-29T01:31:16;13.57;;;4.38;;
36359;SDS011;22388;52.432;20.662;2023-05-29T01:33:42;12.32;;;4.40;;
36359;SDS011;22388;52.432;20.662;2023-05-29T01:36:16;11.05;;;4.10;;
36359;SDS011;22388;52.432;20.662;2023-05-29T01:38:41;10.25;;;4.13;;
36359;SDS011;22388;52.432;20.662;2023-05-29T01:41:07;12.82;;;4.63;;
36359;SDS011;22388;52.432;20.662;2023-05-29T01:43:32;12.93;;;4.38;;
36359;SDS011;22388;52.432;20.662;2023-05-29T01:45:58;11.00;;;4.38;;
36359;SDS011;22388;52.432;20.662;2023-05-29T01:48:23;9.93;;;4.20;;
36359;SDS011;22388;52.432;20.662;2023-05-29T01:50:49;11.30;;;4.43;;
36359;SDS011;22388;52.432;20.662;2023-05-29T01:53:15;9.98;;;4.03;;
36359;SDS011;22388;52.432;20.662;2023-05-29T01:55:40;11.55;;;4.40;;
36359;SDS011;22388;52.432;20.662;2023-05-29T01:58:06;10.57;;;4.00;;
36359;SDS011;22388;52.432;20.662;2023-05-29T02:00:32;9.00;;;4.20;;
36359;SDS011;22388;52.432;20.662;2023-05-29T02:02:58;11.90;;;4.40;;
36359;SDS011;22388;52.432;20.662;2023-05-29T02:05:23;11.43;;;4.00;;
36359;SDS011;22388;52.432;20.662;2023-05-29T02:07:49;14.52;;;4.05;;
36359;SDS011;22388;52.432;20.662;2023-05-29T02:10:14;13.90;;;4.07;;
36359;SDS011;22388;52.432;20.662;2023-05-29T02:12:39;10.82;;;4.50;;
36359;SDS011;22388;52.432;20.662;2023-05-29T02:15:05;12.43;;;4.60;;
36359;SDS011;22388;52.432;20.662;2023-05-29T02:17:31;14.77;;;4.72;;
36359;SDS011;22388;52.432;20.662;2023-05-29T02:19:56;13.48;;;4.35;;
36359;SDS011;22388;52.432;20.662;2023-05-29T02:22:22;11.90;;;4.15;;
36359;SDS011;22388;52.432;20.662;2023-05-29T02:24:47;13.88;;;4.72;;
36359;SDS011;22388;52.432;20.662;2023-05-29T02:27:12;10.73;;;4.43;;
36359;SDS011;22388;52.432;20.662;2023-05-29T02:29:38;9.32;;;3.88;;
36359;SDS011;22388;52.432;20.662;2023-05-29T02:32:03;10.27;;;4.30;;
36359;SDS011;22388;52.432;20.662;2023-05-29T02:34:30;13.18;;;4.50;;
36359;SDS011;22388;52.432;20.662;2023-05-29T02:36:55;10.30;;;5.15;;
36359;SDS011;22388;52.432;20.662;2023-05-29T02:39:20;14.32;;;4.40;;
36359;SDS011;22388;52.432;20.662;2023-05-29T02:41:46;8.25;;;3.72;;
36359;SDS011;22388;52.432;20.662;2023-05-29T02:44:11;11.02;;;5.07;;
36359;SDS011;22388;52.432;20.662;2023-05-29T02:46:37;11.90;;;5.00;;
36359;SDS011;22388;52.432;20.662;2023-05-29T02:49:02;10.98;;;4.60;;
36359;SDS011;22388;52.432;20.662;2023-05-29T02:51:28;11.70;;;4.50;;
36359;SDS011;22388;52.432;20.662;2023-05-29T02:53:53;10.60;;;4.32;;
36359;SDS011;22388;52.432;20.662;2023-05-29T02:56:19;10.80;;;4.13;;
36359;SDS011;22388;52.432;20.662;2023-05-29T02:58:49;12.63;;;4.63;;
36359;SDS011;22388;52.432;20.662;2023-05-29T03:01:14;16.38;;;5.13;;
36359;SDS011;22388;52.432;20.662;2023-05-29T03:03:40;34.88;;;4.90;;
36359;SDS011;22388;52.432;20.662;2023-05-29T03:06:05;28.27;;;5.03;;
36359;SDS011;22388;52.432;20.662;2023-05-29T03:08:31;21.40;;;4.95;;
36359;SDS011;22388;52.432;20.662;2023-05-29T03:10:56;17.13;;;4.93;;
36359;SDS011;22388;52.432;20.662;2023-05-29T03:13:22;18.15;;;4.93;;
36359;SDS011;22388;52.432;20.662;2023-05-29T03:15:47;12.00;;;4.95;;
36359;SDS011;22388;52.432;20.662;2023-05-29T03:18:12;21.67;;;5.20;;
36359;SDS011;22388;52.432;20.662;2023-05-29T03:20:38;12.40;;;5.18;;
36359;SDS011;22388;52.432;20.662;2023-05-29T03:23:03;12.98;;;5.20;;
36359;SDS011;22388;52.432;20.662;2023-05-29T03:25:29;22.75;;;5.43;;
36359;SDS011;22388;52.432;20.662;2023-05-29T03:27:54;16.50;;;5.43;;
36359;SDS011;22388;52.432;20.662;2023-05-29T03:30:20;15.13;;;4.50;;
36359;SDS011;22388;52.432;20.662;2023-05-29T03:32:46;13.40;;;4.70;;
36359;SDS011;22388;52.432;20.662;2023-05-29T03:35:11;12.80;;;5.00;;
36359;SDS011;22388;52.432;20.662;2023-05-29T03:37:36;16.10;;;4.40;;
36359;SDS011;22388;52.432;20.662;2023-05-29T03:40:02;15.82;;;5.05;;
36359;SDS011;22388;52.432;20.662;2023-05-29T03:42:29;19.38;;;4.82;;
36359;SDS011;22388;52.432;20.662;2023-05-29T03:44:56;10.45;;;4.38;;
36359;SDS011;22388;52.432;20.662;2023-05-29T03:47:21;12.93;;;5.15;;
36359;SDS011;22388;52.432;20.662;2023-05-29T03:49:47;23.70;;;4.65;;
36359;SDS011;22388;52.432;20.662;2023-05-29T03:52:12;10.10;;;4.60;;
36359;SDS011;22388;52.432;20.662;2023-05-29T03:54:38;12.98;;;4.80;;
36359;SDS011;22388;52.432;20.662;2023-05-29T03:57:03;11.35;;;4.93;;
36359;SDS011;22388;52.432;20.662;2023-05-29T03:59:28;23.02;;;5.50;;
36359;SDS011;22388;52.432;20.662;2023-05-29T04:01:54;17.13;;;5.32;;
36359;SDS011;22388;52.432;20.662;2023-05-29T04:04:19;17.45;;;5.75;;
36359;SDS011;22388;52.432;20.662;2023-05-29T04:06:45;15.80;;;4.85;;
36359;SDS011;22388;52.432;20.662;2023-05-29T04:09:10;15.80;;;5.13;;
36359;SDS011;22388;52.432;20.662;2023-05-29T04:11:36;13.18;;;5.50;;
36359;SDS011;22388;52.432;20.662;2023-05-29T04:14:01;15.40;;;5.40;;
36359;SDS011;22388;52.432;20.662;2023-05-29T04:16:27;18.35;;;4.82;;
36359;SDS011;22388;52.432;20.662;2023-05-29T04:18:54;13.27;;;4.90;;
36359;SDS011;22388;52.432;20.662;2023-05-29T04:21:19;12.52;;;5.40;;
36359;SDS011;22388;52.432;20.662;2023-05-29T04:23:44;11.88;;;4.95;;
36359;SDS011;22388;52.432;20.662;2023-05-29T04:26:10;15.52;;;4.68;;
36359;SDS011;22388;52.432;20.662;2023-05-29T04:28:35;10.43;;;4.97;;
36359;SDS011;22388;52.432;20.662;2023-05-29T04:31:02;12.88;;;5.00;;
36359;SDS011;22388;52.432;20.662;2023-05-29T04:33:27;13.13;;;5.28;;
36359;SDS011;22388;52.432;20.662;2023-05-29T04:35:54;12.65;;;5.38;;
36359;SDS011;22388;52.432;20.662;2023-05-29T04:38:20;12.80;;;4.80;;
36359;SDS011;22388;52.432;20.662;2023-05-29T04:40:50;11.43;;;4.75;;
36359;SDS011;22388;52.432;20.662;2023-05-29T04:43:15;13.23;;;4.97;;
36359;SDS011;22388;52.432;20.662;2023-05-29T04:45:41;11.85;;;4.90;;
36359;SDS011;22388;52.432;20.662;2023-05-29T04:48:07;14.65;;;5.55;;
36359;SDS011;22388;52.432;20.662;2023-05-29T04:50:33;12.25;;;4.57;;
36359;SDS011;22388;52.432;20.662;2023-05-29T04:52:59;13.77;;;5.20;;
36359;SDS011;22388;52.432;20.662;2023-05-29T04:55:25;10.05;;;5.43;;
36359;SDS011;22388;52.432;20.662;2023-05-29T04:57:50;15.60;;;5.45;;
36359;SDS011;22388;52.432;20.662;2023-05-29T05:00:16;14.60;;;5.20;;
36359;SDS011;22388;52.432;20.662;2023-05-29T05:02:43;11.68;;;4.88;;
36359;SDS011;22388;52.432;20.662;2023-05-29T05:05:09;15.48;;;5.38;;
36359;SDS011;22388;52.432;20.662;2023-05-29T05:07:34;13.15;;;5.78;;
36359;SDS011;22388;52.432;20.662;2023-05-29T05:10:00;13.50;;;5.55;;
36359;SDS011;22388;52.432;20.662;2023-05-29T05:12:26;10.43;;;5.20;;
36359;SDS011;22388;52.432;20.662;2023-05-29T05:14:51;15.73;;;5.25;;
36359;SDS011;22388;52.432;20.662;2023-05-29T05:17:17;12.45;;;5.28;;
36359;SDS011;22388;52.432;20.662;2023-05-29T05:19:42;16.27;;;5.97;;
36359;SDS011;22388;52.432;20.662;2023-05-29T05:22:07;19.45;;;5.25;;
36359;SDS011;22388;52.432;20.662;2023-05-29T05:24:33;17.25;;;5.47;;
36359;SDS011;22388;52.432;20.662;2023-05-29T05:26:59;14.25;;;5.13;;
36359;SDS011;22388;52.432;20.662;2023-05-29T05:29:25;14.82;;;5.43;;
36359;SDS011;22388;52.432;20.662;2023-05-29T05:31:50;15.65;;;5.03;;
36359;SDS011;22388;52.432;20.662;2023-05-29T05:34:16;11.90;;;4.75;;
36359;SDS011;22388;52.432;20.662;2023-05-29T05:36:41;15.95;;;5.25;;
36359;SDS011;22388;52.432;20.662;2023-05-29T05:39:07;9.68;;;4.70;;
36359;SDS011;22388;52.432;20.662;2023-05-29T05:41:32;12.05;;;5.20;;
36359;SDS011;22388;52.432;20.662;2023-05-29T05:43:58;11.98;;;5.72;;
36359;SDS011;22388;52.432;20.662;2023-05-29T05:46:23;16.17;;;5.72;;
36359;SDS011;22388;52.432;20.662;2023-05-29T05:48:48;17.33;;;5.40;;
36359;SDS011;22388;52.432;20.662;2023-05-29T05:51:14;11.20;;;5.32;;
36359;SDS011;22388;52.432;20.662;2023-05-29T05:53:39;22.27;;;5.63;;
36359;SDS011;22388;52.432;20.662;2023-05-29T05:56:05;26.52;;;5.40;;
36359;SDS011;22388;52.432;20.662;2023-05-29T05:58:30;11.48;;;5.28;;
36359;SDS011;22388;52.432;20.662;2023-05-29T06:00:56;9.68;;;5.10;;
36359;SDS011;22388;52.432;20.662;2023-05-29T06:03:22;13.45;;;5.05;;
36359;SDS011;22388;52.432;20.662;2023-05-29T06:05:47;13.13;;;5.10;;
36359;SDS011;22388;52.432;20.662;2023-05-29T06:08:13;9.10;;;4.50;;
36359;SDS011;22388;52.432;20.662;2023-05-29T06:10:38;13.15;;;5.00;;
36359;SDS011;22388;52.432;20.662;2023-05-29T06:13:04;14.75;;;4.65;;
36359;SDS011;22388;52.432;20.662;2023-05-29T06:15:30;12.52;;;4.50;;
36359;SDS011;22388;52.432;20.662;2023-05-29T06:17:56;12.23;;;4.45;;
36359;SDS011;22388;52.432;20.662;2023-05-29T06:20:21;9.25;;;3.80;;
36359;SDS011;22388;52.432;20.662;2023-05-29T06:22:46;9.30;;;4.03;;
36359;SDS011;22388;52.432;20.662;2023-05-29T06:25:18;11.25;;;4.00;;
36359;SDS011;22388;52.432;20.662;2023-05-29T06:27:44;9.45;;;3.60;;
36359;SDS011;22388;52.432;20.662;2023-05-29T06:30:10;15.32;;;4.60;;
36359;SDS011;22388;52.432;20.662;2023-05-29T06:32:39;12.02;;;3.78;;
36359;SDS011;22388;52.432;20.662;2023-05-29T06:35:05;8.52;;;3.10;;
36359;SDS011;22388;52.432;20.662;2023-05-29T06:37:31;7.55;;;3.03;;
36359;SDS011;22388;52.432;20.662;2023-05-29T06:39:57;8.75;;;3.05;;
36359;SDS011;22388;52.432;20.662;2023-05-29T06:42:22;9.30;;;2.55;;
36359;SDS011;22388;52.432;20.662;2023-05-29T06:44:48;8.00;;;3.03;;
36359;SDS011;22388;52.432;20.662;2023-05-29T06:47:13;7.15;;;2.47;;
36359;SDS011;22388;52.432;20.662;2023-05-29T06:49:38;6.97;;;2.90;;
36359;SDS011;22388;52.432;20.662;2023-05-29T06:52:04;7.40;;;2.38;;
36359;SDS011;22388;52.432;20.662;2023-05-29T06:54:29;5.82;;;2.60;;
36359;SDS011;22388;52.432;20.662;2023-05-29T06:56:55;10.57;;;2.33;;
36359;SDS011;22388;52.432;20.662;2023-05-29T06:59:21;8.07;;;3.20;;
36359;SDS011;22388;52.432;20.662;2023-05-29T07:01:47;17.05;;;2.80;;
36359;SDS011;22388;52.432;20.662;2023-05-29T07:04:12;6.50;;;2.20;;
36359;SDS011;22388;52.432;20.662;2023-05-29T07:06:38;9.18;;;2.42;;
36359;SDS011;22388;52.432;20.662;2023-05-29T07:09:03;7.47;;;2.33;;
36359;SDS011;22388;52.432;20.662;2023-05-29T07:11:29;15.80;;;2.38;;
36359;SDS011;22388;52.432;20.662;2023-05-29T07:13:55;7.75;;;2.13;;
36359;SDS011;22388;52.432;20.662;2023-05-29T07:16:20;9.35;;;2.28;;
36359;SDS011;22388;52.432;20.662;2023-05-29T07:18:45;3.90;;;1.90;;
36359;SDS011;22388;52.432;20.662;2023-05-29T07:21:11;5.75;;;1.83;;
36359;SDS011;22388;52.432;20.662;2023-05-29T07:23:36;7.05;;;1.98;;
36359;SDS011;22388;52.432;20.662;2023-05-29T07:26:02;10.23;;;2.53;;
36359;SDS011;22388;52.432;20.662;2023-05-29T07:28:27;7.38;;;2.03;;
36359;SDS011;22388;52.432;20.662;2023-05-29T07:30:53;6.35;;;1.77;;
36359;SDS011;22388;52.432;20.662;2023-05-29T07:33:18;8.13;;;1.90;;
36359;SDS011;22388;52.432;20.662;2023-05-29T07:35:44;14.95;;;2.00;;
36359;SDS011;22388;52.432;20.662;2023-05-29T07:38:09;5.65;;;1.98;;
36359;SDS011;22388;52.432;20.662;2023-05-29T07:40:35;8.45;;;2.33;;
36359;SDS011;22388;52.432;20.662;2023-05-29T07:43:00;6.43;;;2.20;;
36359;SDS011;22388;52.432;20.662;2023-05-29T07:45:26;7.15;;;1.88;;
36359;SDS011;22388;52.432;20.662;2023-05-29T07:47:51;7.53;;;1.83;;
36359;SDS011;22388;52.432;20.662;2023-05-29T07:50:17;9.23;;;2.25;;
36359;SDS011;22388;52.432;20.662;2023-05-29T07:52:43;10.65;;;1.80;;
36359;SDS011;22388;52.432;20.662;2023-05-29T07:55:09;8.07;;;2.42;;
36359;SDS011;22388;52.432;20.662;2023-05-29T07:57:35;5.95;;;1.58;;
36359;SDS011;22388;52.432;20.662;2023-05-29T08:00:00;4.25;;;1.70;;
36359;SDS011;22388;52.432;20.662;2023-05-29T08:02:31;13.45;;;2.33;;
36359;SDS011;22388;52.432;20.662;2023-05-29T08:04:56;6.85;;;1.65;;
36359;SDS011;22388;52.432;20.662;2023-05-29T08:07:22;8.35;;;1.70;;
36359;SDS011;22388;52.432;20.662;2023-05-29T08:09:48;5.97;;;1.98;;
36359;SDS011;22388;52.432;20.662;2023-05-29T08:12:13;7.32;;;1.90;;
36359;SDS011;22388;52.432;20.662;2023-05-29T08:14:38;5.68;;;1.55;;
36359;SDS011;22388;52.432;20.662;2023-05-29T08:17:04;5.82;;;1.60;;
36359;SDS011;22388;52.432;20.662;2023-05-29T08:19:30;7.88;;;1.90;;
36359;SDS011;22388;52.432;20.662;2023-05-29T08:21:55;6.97;;;2.13;;
36359;SDS011;22388;52.432;20.662;2023-05-29T08:24:20;7.75;;;1.67;;
36359;SDS011;22388;52.432;20.662;2023-05-29T08:26:46;6.13;;;1.88;;
36359;SDS011;22388;52.432;20.662;2023-05-29T08:29:11;9.15;;;1.65;;
36359;SDS011;22388;52.432;20.662;2023-05-29T08:31:37;8.32;;;1.50;;
36359;SDS011;22388;52.432;20.662;2023-05-29T08:34:02;4.28;;;1.70;;
36359;SDS011;22388;52.432;20.662;2023-05-29T08:36:28;11.00;;;2.53;;
36359;SDS011;22388;52.432;20.662;2023-05-29T08:38:53;13.32;;;1.80;;
36359;SDS011;22388;52.432;20.662;2023-05-29T08:41:26;9.95;;;1.70;;
36359;SDS011;22388;52.432;20.662;2023-05-29T08:43:54;6.70;;;1.42;;
36359;SDS011;22388;52.432;20.662;2023-05-29T08:46:20;7.50;;;2.00;;
36359;SDS011;22388;52.432;20.662;2023-05-29T08:48:48;10.63;;;1.88;;
36359;SDS011;22388;52.432;20.662;2023-05-29T08:51:16;6.38;;;1.77;;
36359;SDS011;22388;52.432;20.662;2023-05-29T08:53:44;7.75;;;1.73;;
36359;SDS011;22388;52.432;20.662;2023-05-29T08:56:10;10.77;;;1.60;;
36359;SDS011;22388;52.432;20.662;2023-05-29T08:58:35;9.85;;;1.95;;
36359;SDS011;22388;52.432;20.662;2023-05-29T09:01:01;5.63;;;1.73;;
36359;SDS011;22388;52.432;20.662;2023-05-29T09:03:27;10.18;;;1.40;;
36359;SDS011;22388;52.432;20.662;2023-05-29T09:05:52;11.02;;;2.00;;
36359;SDS011;22388;52.432;20.662;2023-05-29T09:08:23;9.90;;;1.90;;
36359;SDS011;22388;52.432;20.662;2023-05-29T09:10:49;6.43;;;1.95;;
36359;SDS011;22388;52.432;20.662;2023-05-29T09:13:14;7.97;;;2.20;;
36359;SDS011;22388;52.432;20.662;2023-05-29T09:15:40;12.65;;;1.88;;
36359;SDS011;22388;52.432;20.662;2023-05-29T09:18:07;10.65;;;2.08;;
36359;SDS011;22388;52.432;20.662;2023-05-29T09:20:33;8.57;;;2.00;;
36359;SDS011;22388;52.432;20.662;2023-05-29T09:23:00;8.35;;;1.90;;
36359;SDS011;22388;52.432;20.662;2023-05-29T09:25:32;6.30;;;1.80;;
36359;SDS011;22388;52.432;20.662;2023-05-29T09:27:59;8.57;;;1.70;;
36359;SDS011;22388;52.432;20.662;2023-05-29T09:30:32;7.25;;;2.10;;
36359;SDS011;22388;52.432;20.662;2023-05-29T09:32:59;21.05;;;2.42;;
36359;SDS011;22388;52.432;20.662;2023-05-29T09:35:25;10.75;;;1.83;;
36359;SDS011;22388;52.432;20.662;2023-05-29T09:37:50;7.55;;;2.33;;
36359;SDS011;22388;52.432;20.662;2023-05-29T09:40:16;7.60;;;2.00;;
36359;SDS011;22388;52.432;20.662;2023-05-29T09:42:42;12.27;;;1.83;;
36359;SDS011;22388;52.432;20.662;2023-05-29T09:45:08;8.35;;;2.08;;
36359;SDS011;22388;52.432;20.662;2023-05-29T09:47:34;6.72;;;1.75;;
36359;SDS011;22388;52.432;20.662;2023-05-29T09:50:00;11.23;;;1.83;;
36359;SDS011;22388;52.432;20.662;2023-05-29T09:52:26;7.88;;;1.95;;
36359;SDS011;22388;52.432;20.662;2023-05-29T09:54:55;5.90;;;1.65;;
36359;SDS011;22388;52.432;20.662;2023-05-29T09:57:21;5.43;;;1.73;;
36359;SDS011;22388;52.432;20.662;2023-05-29T09:59:48;5.93;;;1.70;;
36359;SDS011;22388;52.432;20.662;2023-05-29T10:02:16;5.60;;;1.98;;
36359;SDS011;22388;52.432;20.662;2023-05-29T10:04:43;7.38;;;1.70;;
36359;SDS011;22388;52.432;20.662;2023-05-29T10:09:51;6.07;;;2.00;;
36359;SDS011;22388;52.432;20.662;2023-05-29T10:12:19;7.72;;;1.63;;
36359;SDS011;22388;52.432;20.662;2023-05-29T10:14:46;11.25;;;2.13;;
36359;SDS011;22388;52.432;20.662;2023-05-29T10:17:14;26.05;;;3.22;;
36359;SDS011;22388;52.432;20.662;2023-05-29T10:19:40;8.38;;;1.90;;
36359;SDS011;22388;52.432;20.662;2023-05-29T10:22:07;7.13;;;1.70;;
36359;SDS011;22388;52.432;20.662;2023-05-29T10:24:34;5.65;;;1.73;;
36359;SDS011;22388;52.432;20.662;2023-05-29T10:27:06;7.15;;;2.20;;
36359;SDS011;22388;52.432;20.662;2023-05-29T10:29:36;10.88;;;2.05;;
36359;SDS011;22388;52.432;20.662;2023-05-29T10:37:32;8.40;;;2.03;;
36359;SDS011;22388;52.432;20.662;2023-05-29T10:40:08;5.95;;;1.80;;
36359;SDS011;22388;52.432;20.662;2023-05-29T10:42:47;10.30;;;2.10;;
36359;SDS011;22388;52.432;20.662;2023-05-29T10:47:54;8.48;;;2.08;;
36359;SDS011;22388;52.432;20.662;2023-05-29T10:50:38;6.35;;;2.10;;
36359;SDS011;22388;52.432;20.662;2023-05-29T10:53:08;5.93;;;2.22;;
36359;SDS011;22388;52.432;20.662;2023-05-29T10:55:35;7.38;;;2.22;;
36359;SDS011;22388;52.432;20.662;2023-05-29T10:58:07;7.05;;;1.80;;
36359;SDS011;22388;52.432;20.662;2023-05-29T11:00:33;4.93;;;1.98;;
36359;SDS011;22388;52.432;20.662;2023-05-29T11:03:06;8.63;;;1.98;;
36359;SDS011;22388;52.432;20.662;2023-05-29T11:05:32;7.53;;;1.95;;
36359;SDS011;22388;52.432;20.662;2023-05-29T11:07:58;8.85;;;1.85;;
36359;SDS011;22388;52.432;20.662;2023-05-29T11:10:42;7.38;;;1.98;;
36359;SDS011;22388;52.432;20.662;2023-05-29T11:13:09;9.27;;;2.03;;
36359;SDS011;22388;52.432;20.662;2023-05-29T11:15:35;6.82;;;1.95;;
36359;SDS011;22388;52.432;20.662;2023-05-29T11:18:09;6.35;;;2.17;;
36359;SDS011;22388;52.432;20.662;2023-05-29T11:20:43;12.95;;;2.20;;
36359;SDS011;22388;52.432;20.662;2023-05-29T11:23:09;9.45;;;2.45;;
36359;SDS011;22388;52.432;20.662;2023-05-29T11:25:41;8.68;;;2.20;;
36359;SDS011;22388;52.432;20.662;2023-05-29T11:28:09;8.30;;;1.83;;
36359;SDS011;22388;52.432;20.662;2023-05-29T11:30:42;9.85;;;2.25;;
36359;SDS011;22388;52.432;20.662;2023-05-29T11:33:07;9.82;;;2.03;;
36359;SDS011;22388;52.432;20.662;2023-05-29T11:35:34;9.32;;;2.25;;
36359;SDS011;22388;52.432;20.662;2023-05-29T11:38:02;18.98;;;2.47;;
36359;SDS011;22388;52.432;20.662;2023-05-29T11:40:27;13.40;;;2.38;;
36359;SDS011;22388;52.432;20.662;2023-05-29T11:42:53;7.22;;;2.10;;
36359;SDS011;22388;52.432;20.662;2023-05-29T11:45:19;7.30;;;2.38;;
36359;SDS011;22388;52.432;20.662;2023-05-29T11:47:52;9.40;;;2.00;;
36359;SDS011;22388;52.432;20.662;2023-05-29T11:50:20;11.18;;;2.70;;
36359;SDS011;22388;52.432;20.662;2023-05-29T11:52:46;16.10;;;2.65;;
36359;SDS011;22388;52.432;20.662;2023-05-29T11:55:12;7.30;;;1.98;;
36359;SDS011;22388;52.432;20.662;2023-05-29T11:57:37;7.03;;;1.95;;
36359;SDS011;22388;52.432;20.662;2023-05-29T12:00:03;4.85;;;2.40;;
36359;SDS011;22388;52.432;20.662;2023-05-29T12:05:00;11.77;;;2.20;;
36359;SDS011;22388;52.432;20.662;2023-05-29T12:07:26;15.32;;;2.20;;
36359;SDS011;22388;52.432;20.662;2023-05-29T12:09:51;6.20;;;2.08;;
36359;SDS011;22388;52.432;20.662;2023-05-29T12:12:22;9.27;;;2.23;;
36359;SDS011;22388;52.432;20.662;2023-05-29T12:14:51;6.50;;;1.98;;
36359;SDS011;22388;52.432;20.662;2023-05-29T12:17:18;8.13;;;2.30;;
36359;SDS011;22388;52.432;20.662;2023-05-29T12:19:43;6.25;;;1.95;;
36359;SDS011;22388;52.432;20.662;2023-05-29T12:22:09;10.18;;;2.22;;
36359;SDS011;22388;52.432;20.662;2023-05-29T12:24:35;6.95;;;1.80;;
36359;SDS011;22388;52.432;20.662;2023-05-29T12:27:03;6.82;;;1.80;;
36359;SDS011;22388;52.432;20.662;2023-05-29T12:29:32;8.95;;;3.25;;
36359;SDS011;22388;52.432;20.662;2023-05-29T12:31:58;9.10;;;2.30;;
36359;SDS011;22388;52.432;20.662;2023-05-29T12:34:24;10.45;;;1.80;;
36359;SDS011;22388;52.432;20.662;2023-05-29T12:36:49;10.15;;;2.50;;
36359;SDS011;22388;52.432;20.662;2023-05-29T12:39:15;9.45;;;2.10;;
36359;SDS011;22388;52.432;20.662;2023-05-29T12:41:40;7.78;;;2.20;;
36359;SDS011;22388;52.432;20.662;2023-05-29T12:44:06;4.05;;;2.15;;
36359;SDS011;22388;52.432;20.662;2023-05-29T12:46:41;8.63;;;2.17;;
36359;SDS011;22388;52.432;20.662;2023-05-29T12:51:41;8.07;;;2.10;;
36359;SDS011;22388;52.432;20.662;2023-05-29T12:54:09;8.00;;;1.95;;
36359;SDS011;22388;52.432;20.662;2023-05-29T12:56:35;7.60;;;2.42;;
36359;SDS011;22388;52.432;20.662;2023-05-29T12:59:00;5.65;;;1.98;;
36359;SDS011;22388;52.432;20.662;2023-05-29T13:01:26;6.35;;;2.40;;
36359;SDS011;22388;52.432;20.662;2023-05-29T13:03:51;14.90;;;2.53;;
36359;SDS011;22388;52.432;20.662;2023-05-29T13:06:17;10.48;;;2.40;;
36359;SDS011;22388;52.432;20.662;2023-05-29T13:08:42;9.98;;;2.67;;
36359;SDS011;22388;52.432;20.662;2023-05-29T13:11:08;11.32;;;2.40;;
36359;SDS011;22388;52.432;20.662;2023-05-29T13:13:33;6.82;;;2.35;;
36359;SDS011;22388;52.432;20.662;2023-05-29T13:15:59;5.15;;;2.33;;
36359;SDS011;22388;52.432;20.662;2023-05-29T13:18:24;5.85;;;2.00;;
36359;SDS011;22388;52.432;20.662;2023-05-29T13:20:50;8.75;;;2.33;;
36359;SDS011;22388;52.432;20.662;2023-05-29T13:23:16;8.68;;;2.50;;
36359;SDS011;22388;52.432;20.662;2023-05-29T13:25:41;8.43;;;2.17;;
36359;SDS011;22388;52.432;20.662;2023-05-29T13:28:06;7.70;;;1.90;;
36359;SDS011;22388;52.432;20.662;2023-05-29T13:30:32;8.02;;;1.92;;
36359;SDS011;22388;52.432;20.662;2023-05-29T13:32:57;7.60;;;2.30;;
36359;SDS011;22388;52.432;20.662;2023-05-29T13:35:23;7.80;;;2.42;;
36359;SDS011;22388;52.432;20.662;2023-05-29T13:37:48;9.13;;;2.10;;
36359;SDS011;22388;52.432;20.662;2023-05-29T13:40:14;14.05;;;2.60;;
36359;SDS011;22388;52.432;20.662;2023-05-29T13:42:40;5.35;;;2.35;;
36359;SDS011;22388;52.432;20.662;2023-05-29T13:45:05;5.07;;;2.10;;
36359;SDS011;22388;52.432;20.662;2023-05-29T13:47:32;6.78;;;2.28;;
36359;SDS011;22388;52.432;20.662;2023-05-29T13:49:57;8.85;;;2.75;;
36359;SDS011;22388;52.432;20.662;2023-05-29T13:52:23;8.98;;;2.47;;
36359;SDS011;22388;52.432;20.662;2023-05-29T13:54:49;5.72;;;2.50;;
36359;SDS011;22388;52.432;20.662;2023-05-29T13:57:14;7.60;;;2.70;;
36359;SDS011;22388;52.432;20.662;2023-05-29T13:59:40;8.55;;;2.45;;
36359;SDS011;22388;52.432;20.662;2023-05-29T14:02:05;5.78;;;2.60;;
36359;SDS011;22388;52.432;20.662;2023-05-29T14:04:31;7.93;;;2.40;;
36359;SDS011;22388;52.432;20.662;2023-05-29T14:06:56;6.30;;;2.13;;
36359;SDS011;22388;52.432;20.662;2023-05-29T14:09:22;5.70;;;2.50;;
36359;SDS011;22388;52.432;20.662;2023-05-29T14:11:52;10.52;;;2.65;;
36359;SDS011;22388;52.432;20.662;2023-05-29T14:14:18;16.10;;;3.20;;
36359;SDS011;22388;52.432;20.662;2023-05-29T14:16:44;7.00;;;2.30;;
36359;SDS011;22388;52.432;20.662;2023-05-29T14:19:09;7.55;;;2.40;;
36359;SDS011;22388;52.432;20.662;2023-05-29T14:21:35;8.88;;;2.47;;
36359;SDS011;22388;52.432;20.662;2023-05-29T14:24:01;10.43;;;2.63;;
36359;SDS011;22388;52.432;20.662;2023-05-29T14:26:26;9.80;;;2.67;;
36359;SDS011;22388;52.432;20.662;2023-05-29T14:28:51;8.13;;;2.70;;
36359;SDS011;22388;52.432;20.662;2023-05-29T14:31:17;14.73;;;3.38;;
36359;SDS011;22388;52.432;20.662;2023-05-29T14:33:42;8.35;;;2.42;;
36359;SDS011;22388;52.432;20.662;2023-05-29T14:36:08;9.57;;;2.60;;
36359;SDS011;22388;52.432;20.662;2023-05-29T14:38:33;7.03;;;2.47;;
36359;SDS011;22388;52.432;20.662;2023-05-29T14:41:01;8.55;;;2.30;;
36359;SDS011;22388;52.432;20.662;2023-05-29T14:43:27;7.85;;;2.30;;
36359;SDS011;22388;52.432;20.662;2023-05-29T14:45:52;9.63;;;2.47;;